Time;durP1;ratioP1;P1;durP2;ratioP2;P2;SDS_P1;SDS_P2;PMS_P1;PMS_P2;Temp;Humidity;BMP_temperature;BMP_pressure;BME280_temperature;BME280_humidity;BME280_pressure;Samples;Min_cycle;Max_cycle;Signal;HPM_P1;HPM_P2
2024/01/31 08:34:02;;;;;;;23.90;12.98;;;6.30;99.90;;;;;;2602691;54;20030;31
2024/01/31 08:37:03;;;;;;;23.63;12.35;;;6.40;99.90;;;;;;2621609;46;20053;31
2024/01/31 08:45:53;;;;;;;24.38;13.70;;;6.60;99.90;;;;;;2621651;46;21120;31
2024/01/31 09:00:29;;;;;;;22.75;12.43;;;7.20;99.90;;;;;;2603341;54;20026;31
2024/01/31 12:03:21;;;;;;;8.63;4.07;;;8.70;99.90;;;;;;2601371;54;20863;31
2024/01/31 13:28:42;;;;;;;7.27;2.80;;;8.40;99.90;;;;;;2602344;54;20022;31
2024/01/31 14:00:23;;;;;;;7.45;3.38;;;8.40;99.90;;;;;;2602418;54;20089;31
2024/01/31 14:03:23;;;;;;;6.53;3.85;;;8.40;99.90;;;;;;2601835;54;20048;31
2024/01/31 14:06:09;;;;;;;8.07;4.68;;;8.30;99.90;;;;;;2602641;54;20026;31
2024/01/31 14:12:24;;;;;;;8.27;4.40;;;8.30;99.90;;;;;;2603134;54;20077;31
2024/01/31 14:15:06;;;;;;;9.15;4.80;;;8.40;99.90;;;;;;2603227;54;21116;31
2024/01/31 14:17:43;;;;;;;8.48;4.80;;;8.30;99.90;;;;;;2602852;54;20030;31
2024/01/31 14:20:24;;;;;;;7.25;3.55;;;8.30;99.90;;;;;;2602846;54;20050;31
2024/01/31 14:23:05;;;;;;;6.13;3.07;;;8.30;99.90;;;;;;2602936;54;20033;31
2024/01/31 14:26:12;;;;;;;4.90;3.00;;;8.20;99.90;;;;;;2620843;47;20791;31
2024/01/31 14:28:48;;;;;;;5.53;3.03;;;8.20;99.90;;;;;;2602575;54;20023;31
2024/01/31 14:31:26;;;;;;;7.50;4.30;;;8.20;99.90;;;;;;2602786;54;20873;31
2024/01/31 14:34:04;;;;;;;9.93;4.55;;;8.10;99.90;;;;;;2602937;54;20033;31
2024/01/31 14:36:48;;;;;;;18.30;5.70;;;8.10;99.90;;;;;;2620917;46;20770;31
2024/01/31 14:39:58;;;;;;;11.45;4.18;;;8.10;99.90;;;;;;2605362;46;20038;31
2024/01/31 14:59:12;;;;;;;7.72;4.10;;;7.90;99.90;;;;;;2602710;54;20057;31
2024/01/31 15:02:21;;;;;;;8.10;3.80;;;7.80;99.90;;;;;;2602458;54;20027;31
2024/01/31 15:05:30;;;;;;;12.20;5.07;;;7.70;99.90;;;;;;2602633;54;20034;31
2024/01/31 15:22:42;;;;;;;10.10;4.47;;;7.60;99.90;;;;;;2602257;54;21339;31
2024/01/31 15:28:35;;;;;;;9.93;5.20;;;7.50;99.90;;;;;;2600939;54;20805;31
2024/01/31 15:31:15;;;;;;;9.47;5.07;;;7.50;99.90;;;;;;2621168;46;20027;31
2024/01/31 15:46:08;;;;;;;10.88;4.78;;;7.40;99.90;;;;;;2602618;54;20848;31
2024/01/31 15:49:01;;;;;;;8.27;4.68;;;7.30;99.90;;;;;;2602411;54;20026;31
2024/01/31 15:52:08;;;;;;;9.23;4.13;;;7.30;99.90;;;;;;2603313;46;20901;31
2024/01/31 15:54:48;;;;;;;7.97;4.97;;;7.40;99.90;;;;;;2602510;54;21043;31
2024/01/31 15:57:42;;;;;;;10.35;4.63;;;7.30;99.90;;;;;;2602489;54;20089;31
2024/01/31 16:00:27;;;;;;;8.80;5.37;;;7.30;99.90;;;;;;2620911;46;21850;31
2024/01/31 16:03:27;;;;;;;;;;;;;;;;;;;;;
2024/01/31 16:06:07;;;;;;;10.73;5.45;;;7.30;99.90;;;;;;2602606;54;20069;31
2024/01/31 16:09:04;;;;;;;11.07;5.80;;;7.30;99.90;;;;;;2602897;54;20735;31
2024/01/31 16:11:44;;;;;;;12.63;5.88;;;7.30;99.90;;;;;;2602451;54;20883;31
2024/01/31 16:14:43;;;;;;;11.18;6.45;;;7.20;99.90;;;;;;2620795;46;20026;31
2024/01/31 16:20:50;;;;;;;12.00;6.13;;;7.20;99.90;;;;;;2602530;54;20026;31
2024/01/31 16:23:38;;;;;;;11.87;5.80;;;7.20;99.90;;;;;;2602446;54;20756;31
2024/01/31 16:26:30;;;;;;;;;;;;;;;;;;;;;
2024/01/31 16:29:27;;;;;;;10.68;5.68;;;7.20;99.90;;;;;;2602598;54;21519;31
2024/01/31 16:32:33;;;;;;;12.13;6.07;;;7.10;99.90;;;;;;2620884;47;20033;31
2024/01/31 16:35:14;;;;;;;10.85;6.00;;;7.20;99.90;;;;;;2602398;54;20026;31
2024/01/31 16:38:01;;;;;;;12.65;6.18;;;7.20;99.90;;;;;;2621040;47;20030;31
2024/01/31 16:40:46;;;;;;;10.50;5.68;;;7.20;99.90;;;;;;2602420;54;20034;31
2024/01/31 16:49:40;;;;;;;10.45;5.13;;;7.10;99.90;;;;;;2602937;54;20026;31
2024/01/31 16:52:20;;;;;;;9.63;5.93;;;7.00;99.90;;;;;;2603185;54;20933;31
2024/01/31 16:57:50;;;;;;;8.90;5.20;;;7.00;99.90;;;;;;2603166;54;20797;31
2024/01/31 17:00:27;;;;;;;9.10;5.20;;;7.00;99.90;;;;;;2603256;54;21142;31
2024/01/31 17:03:08;;;;;;;11.45;6.25;;;7.00;99.90;;;;;;2621761;46;20854;31
2024/01/31 17:05:44;;;;;;;11.53;6.17;;;7.00;99.90;;;;;;2621571;46;20038;31
2024/01/31 17:08:19;;;;;;;11.50;6.45;;;7.00;99.90;;;;;;2603094;54;20315;31
2024/01/31 17:10:56;;;;;;;11.90;6.03;;;7.00;99.90;;;;;;2621489;46;20029;31
2024/01/31 17:13:34;;;;;;;12.13;6.65;;;7.00;99.90;;;;;;2603020;54;20105;31
2024/01/31 17:16:13;;;;;;;11.02;6.05;;;7.00;99.90;;;;;;2603169;54;20026;31
2024/01/31 17:18:47;;;;;;;13.20;6.40;;;7.00;99.90;;;;;;2621490;46;21099;31
2024/01/31 17:21:23;;;;;;;13.57;7.72;;;7.00;99.90;;;;;;2621910;46;20920;31
2024/01/31 17:24:00;;;;;;;13.15;7.50;;;7.00;99.90;;;;;;2603092;54;20919;31
2024/01/31 17:26:38;;;;;;;13.57;7.78;;;7.00;99.90;;;;;;2621293;46;20030;31
2024/01/31 17:29:25;;;;;;;13.10;7.70;;;6.90;99.90;;;;;;2603082;54;20027;31
2024/01/31 17:32:02;;;;;;;14.18;6.38;;;6.90;99.90;;;;;;2621554;46;20034;31
2024/01/31 17:34:39;;;;;;;11.30;6.67;;;6.90;99.90;;;;;;2603034;54;20090;31
2024/01/31 17:37:25;;;;;;;13.45;6.15;;;6.90;99.90;;;;;;2621317;46;20112;31
2024/01/31 17:39:59;;;;;;;12.93;7.15;;;6.90;99.90;;;;;;2602899;54;20151;31
2024/01/31 17:42:36;;;;;;;15.15;7.20;;;6.90;99.90;;;;;;2602945;54;20035;31
2024/01/31 17:45:18;;;;;;;13.82;7.72;;;6.90;99.90;;;;;;2621411;46;20049;31
2024/01/31 17:47:59;;;;;;;15.65;8.30;;;6.90;99.90;;;;;;2603067;54;20815;31
2024/01/31 17:50:37;;;;;;;14.10;7.90;;;6.90;99.90;;;;;;2603133;54;20796;31
2024/01/31 17:53:16;;;;;;;13.35;7.85;;;6.90;99.90;;;;;;2621263;46;20030;31
2024/01/31 17:55:53;;;;;;;16.60;8.10;;;6.80;99.90;;;;;;2602941;54;20121;31
2024/01/31 17:58:28;;;;;;;15.27;8.30;;;6.90;99.90;;;;;;2602803;54;20031;31
2024/01/31 18:01:08;;;;;;;15.02;8.73;;;6.90;99.90;;;;;;2621247;47;20078;31
2024/01/31 18:03:43;;;;;;;14.85;8.95;;;6.90;99.90;;;;;;2602918;54;20034;31
2024/01/31 18:06:17;;;;;;;21.45;10.57;;;7.00;99.90;;;;;;2602850;54;20027;31
2024/01/31 18:08:53;;;;;;;16.13;8.97;;;7.00;99.90;;;;;;2621191;46;20718;31
2024/01/31 18:14:10;;;;;;;16.50;9.07;;;6.90;99.90;;;;;;2602814;54;20889;31
2024/01/31 18:16:59;;;;;;;11.20;7.50;;;6.90;99.90;;;;;;2617355;46;20026;31
2024/01/31 18:19:35;;;;;;;;;;;6.90;99.90;;;;;;2601965;54;20030;31
2024/01/31 18:22:15;;;;;;;13.45;7.70;;;6.80;99.90;;;;;;2621240;46;21134;31
2024/01/31 18:24:50;;;;;;;14.30;7.72;;;6.80;99.90;;;;;;2621647;46;20114;31
2024/01/31 18:27:26;;;;;;;12.65;7.80;;;6.80;99.90;;;;;;2603003;54;20032;31
2024/01/31 18:30:02;;;;;;;10.23;6.82;;;6.70;99.90;;;;;;2621243;46;20031;31
2024/01/31 18:32:38;;;;;;;15.10;7.73;;;6.70;99.90;;;;;;2602963;54;20853;31
2024/01/31 18:35:16;;;;;;;;;;;6.70;99.90;;;;;;2603230;54;20113;31
2024/01/31 18:37:52;;;;;;;12.55;7.95;;;6.70;99.90;;;;;;2621249;46;19942;31
2024/01/31 18:40:28;;;;;;;18.85;8.57;;;6.70;99.90;;;;;;2602837;54;20037;31
2024/01/31 18:43:05;;;;;;;14.10;8.25;;;6.70;99.90;;;;;;2602928;54;20038;31
2024/01/31 18:45:40;;;;;;;16.75;9.13;;;6.70;99.90;;;;;;2602796;54;20067;31
2024/01/31 18:48:16;;;;;;;16.27;8.82;;;6.70;99.90;;;;;;2620976;46;20870;31
2024/01/31 18:51:08;;;;;;;18.15;9.50;;;6.70;99.90;;;;;;2602806;54;20031;31
2024/01/31 18:53:43;;;;;;;14.47;8.10;;;6.60;99.90;;;;;;2602948;54;20034;31
2024/01/31 18:56:17;;;;;;;11.20;7.55;;;6.70;99.90;;;;;;2602462;54;20287;31
2024/01/31 18:58:59;;;;;;;11.90;6.75;;;6.70;99.90;;;;;;2602933;54;20885;31
2024/01/31 19:01:34;;;;;;;11.90;7.35;;;6.70;99.90;;;;;;2621034;46;20745;31
2024/01/31 19:04:08;;;;;;;11.35;7.20;;;6.70;99.90;;;;;;2621497;46;20030;31
2024/01/31 19:06:44;;;;;;;13.00;7.40;;;6.70;99.90;;;;;;2701333;39;21170;31
2024/01/31 19:09:21;;;;;;;12.70;7.83;;;6.70;99.90;;;;;;2602766;54;20030;31
2024/01/31 19:11:59;;;;;;;13.00;7.65;;;6.70;99.90;;;;;;2620115;46;20073;31
2024/01/31 19:14:35;;;;;;;12.18;7.38;;;6.60;99.90;;;;;;2602901;54;21532;31
2024/01/31 19:17:13;;;;;;;13.10;7.10;;;6.60;99.90;;;;;;2602909;54;21524;31
2024/01/31 19:20:00;;;;;;;12.88;6.95;;;6.60;99.90;;;;;;2621366;46;20880;31
2024/01/31 19:22:46;;;;;;;15.20;6.80;;;6.60;99.90;;;;;;2621111;46;20031;31
2024/01/31 19:25:23;;;;;;;16.83;9.13;;;6.50;99.90;;;;;;2602791;54;20030;31
2024/01/31 19:28:03;;;;;;;18.53;10.50;;;6.60;99.90;;;;;;2602643;54;20026;31
2024/01/31 19:30:48;;;;;;;21.23;10.98;;;6.60;99.90;;;;;;2602877;54;20030;31
2024/01/31 19:33:35;;;;;;;21.20;11.70;;;6.60;99.90;;;;;;2602891;54;20053;31
2024/01/31 19:36:11;;;;;;;19.75;11.75;;;6.50;99.90;;;;;;2602807;54;21560;31
2024/01/31 19:38:51;;;;;;;23.02;12.70;;;6.50;99.90;;;;;;2602760;54;20057;31
2024/01/31 19:41:28;;;;;;;25.73;14.02;;;6.50;99.90;;;;;;2602404;54;20539;31
2024/01/31 19:44:06;;;;;;;26.20;15.37;;;6.50;99.90;;;;;;2602784;54;20765;31
2024/01/31 19:46:46;;;;;;;28.80;15.90;;;6.60;99.90;;;;;;2602764;54;20535;31
2024/01/31 19:49:22;;;;;;;30.92;16.55;;;6.40;99.90;;;;;;2602312;54;20254;31
2024/01/31 19:52:06;;;;;;;33.75;18.67;;;6.40;99.90;;;;;;2602539;54;20882;31
2024/01/31 19:54:46;;;;;;;34.72;18.75;;;6.30;99.90;;;;;;2602560;54;20121;31
2024/01/31 19:57:27;;;;;;;34.42;18.05;;;6.30;99.90;;;;;;2602448;54;20932;31
2024/01/31 20:00:08;;;;;;;36.92;18.50;;;6.20;99.90;;;;;;2602487;54;20858;31
2024/01/31 20:02:49;;;;;;;30.80;17.63;;;6.20;99.90;;;;;;2701182;39;21420;31
2024/01/31 20:05:27;;;;;;;35.80;18.63;;;6.10;99.90;;;;;;2602593;54;20874;31
2024/01/31 20:08:06;;;;;;;30.63;19.27;;;6.10;99.90;;;;;;2602522;54;20069;31
2024/01/31 20:10:46;;;;;;;35.58;20.35;;;6.00;99.90;;;;;;2621321;46;20858;31
2024/01/31 20:13:25;;;;;;;36.78;19.40;;;5.90;99.90;;;;;;2602531;54;20923;31
2024/01/31 20:16:05;;;;;;;35.85;18.63;;;5.90;99.90;;;;;;2602773;54;20853;31
2024/01/31 20:18:44;;;;;;;36.10;20.08;;;5.80;99.90;;;;;;2602410;54;20026;31
2024/01/31 20:21:19;;;;;;;41.35;22.65;;;5.80;99.90;;;;;;2602563;54;20842;31
2024/01/31 20:23:55;;;;;;;41.90;23.60;;;5.70;99.90;;;;;;2603336;54;20860;31
2024/01/31 20:26:35;;;;;;;41.20;23.05;;;5.60;99.90;;;;;;2603453;54;20897;31
2024/01/31 20:29:12;;;;;;;45.38;23.08;;;5.50;99.90;;;;;;2603243;54;20030;31
2024/01/31 20:31:59;;;;;;;42.95;23.40;;;5.40;99.90;;;;;;2603193;54;20132;31
2024/01/31 20:34:56;;;;;;;41.60;23.15;;;5.40;99.90;;;;;;2603249;54;20844;31
2024/01/31 20:37:38;;;;;;;49.83;25.20;;;5.30;99.90;;;;;;2603088;54;20026;31
2024/01/31 20:40:20;;;;;;;44.53;23.38;;;5.20;99.90;;;;;;2603316;54;20030;31
2024/01/31 20:43:31;;;;;;;42.33;22.58;;;5.10;99.90;;;;;;2603108;54;22563;31
2024/01/31 20:46:09;;;;;;;47.05;23.85;;;5.10;99.90;;;;;;2621343;46;22082;31
2024/01/31 20:49:25;;;;;;;44.58;24.40;;;5.00;99.90;;;;;;2603124;54;20098;31
2024/01/31 20:52:06;;;;;;;45.10;23.30;;;5.00;99.90;;;;;;2603172;54;20031;31
2024/01/31 20:57:24;;;;;;;42.80;24.38;;;4.80;99.90;;;;;;2601872;54;20089;31
2024/01/31 21:00:08;;;;;;;46.83;23.67;;;4.70;99.90;;;;;;2620442;46;20022;31
2024/01/31 21:05:40;;;;;;;37.33;20.58;;;4.60;99.90;;;;;;2607184;46;20105;31
2024/01/31 21:08:21;;;;;;;45.70;22.15;;;4.50;99.90;;;;;;2603297;54;21246;31
2024/01/31 21:11:02;;;;;;;42.35;22.33;;;4.50;99.90;;;;;;2603031;54;20019;31
2024/01/31 21:13:54;;;;;;;39.50;21.58;;;4.40;99.90;;;;;;2603062;54;20050;31
2024/01/31 21:16:47;;;;;;;39.65;21.30;;;4.30;99.90;;;;;;2621656;46;20037;31
2024/01/31 21:22:36;;;;;;;;;;;;;;;;;;;;;
2024/01/31 21:28:35;;;;;;;41.92;20.05;;;4.10;99.90;;;;;;2603148;54;20851;31
2024/01/31 21:34:31;;;;;;;44.80;21.50;;;4.00;99.90;;;;;;2602661;54;20751;31
2024/01/31 21:40:22;;;;;;;42.45;21.33;;;3.90;99.90;;;;;;2621632;46;20042;31
2024/01/31 21:43:28;;;;;;;47.17;21.65;;;3.80;99.90;;;;;;2603084;54;20119;31
2024/01/31 21:46:28;;;;;;;43.23;21.23;;;3.80;99.90;;;;;;2603017;54;20844;31
2024/01/31 21:49:06;;;;;;;40.80;20.25;;;3.70;99.90;;;;;;2621682;46;20925;31
2024/01/31 21:55:01;;;;;;;40.50;19.90;;;3.60;99.90;;;;;;2602752;54;20037;31
2024/01/31 21:57:43;;;;;;;44.08;19.00;;;3.60;99.90;;;;;;2602348;54;20871;31
2024/01/31 22:00:33;;;;;;;39.87;20.07;;;3.50;99.90;;;;;;2602333;54;20037;31
2024/01/31 22:03:22;;;;;;;44.60;21.15;;;3.50;99.90;;;;;;2720052;39;21531;31
2024/01/31 22:06:10;;;;;;;37.77;19.40;;;3.40;99.90;;;;;;2603206;54;20088;31
2024/01/31 22:11:40;;;;;;;39.67;20.60;;;3.40;99.90;;;;;;2620644;46;20023;31
2024/01/31 22:14:19;;;;;;;37.15;19.10;;;3.30;99.90;;;;;;2602409;54;20769;31
2024/01/31 22:17:06;;;;;;;42.10;21.80;;;3.30;99.90;;;;;;2603156;54;21496;31
2024/01/31 22:19:42;;;;;;;42.65;22.55;;;3.20;99.90;;;;;;2602758;54;20026;31
2024/01/31 22:22:19;;;;;;;38.55;19.20;;;3.10;99.90;;;;;;2602344;54;20034;31
2024/01/31 22:25:12;;;;;;;38.05;21.77;;;3.10;99.90;;;;;;2602947;54;20049;31
2024/01/31 22:28:19;;;;;;;40.78;20.92;;;3.10;99.90;;;;;;2621401;46;20037;31
2024/01/31 22:40:42;;;;;;;42.00;21.85;;;2.90;99.90;;;;;;2701599;39;21418;31
2024/01/31 22:46:17;;;;;;;46.75;22.05;;;2.90;99.90;;;;;;2621484;46;20948;31
2024/01/31 22:49:11;;;;;;;39.75;19.40;;;2.80;99.90;;;;;;2621439;46;20081;31
2024/01/31 22:54:57;;;;;;;44.33;21.95;;;2.80;99.90;;;;;;2602781;54;20932;31
2024/01/31 22:57:46;;;;;;;43.45;21.67;;;2.70;99.90;;;;;;2607107;46;20022;31
2024/01/31 23:00:36;;;;;;;40.97;22.20;;;2.70;99.90;;;;;;2621381;46;20053;31
2024/01/31 23:03:24;;;;;;;44.10;21.05;;;2.60;99.90;;;;;;2602690;54;20259;31
2024/01/31 23:06:15;;;;;;;42.10;21.50;;;2.60;99.90;;;;;;2621640;46;21233;31
2024/01/31 23:09:01;;;;;;;40.20;20.80;;;2.60;99.90;;;;;;2602771;54;20026;31
2024/01/31 23:11:51;;;;;;;44.53;19.90;;;2.60;99.90;;;;;;2602765;54;20909;31
2024/01/31 23:14:48;;;;;;;43.05;21.50;;;2.50;99.90;;;;;;2606712;46;20782;31
2024/01/31 23:17:26;;;;;;;43.30;19.45;;;2.40;99.90;;;;;;2603065;54;20850;31
2024/01/31 23:26:51;;;;;;;36.50;18.55;;;2.40;99.90;;;;;;2602598;54;20839;31
2024/01/31 23:29:37;;;;;;;38.70;19.23;;;2.40;99.90;;;;;;2603042;54;20893;31
2024/01/31 23:32:29;;;;;;;38.60;19.73;;;2.30;99.90;;;;;;2602786;54;20982;31
2024/01/31 23:35:07;;;;;;;39.50;19.65;;;2.30;99.90;;;;;;2602686;54;20038;31
2024/01/31 23:37:53;;;;;;;39.95;18.30;;;2.30;99.90;;;;;;2603013;54;20843;31
2024/01/31 23:40:30;;;;;;;35.70;17.98;;;2.30;99.90;;;;;;2602561;54;20073;31
2024/01/31 23:43:11;;;;;;;43.65;20.25;;;2.30;99.90;;;;;;2602796;54;20027;31
2024/01/31 23:45:47;;;;;;;37.70;17.52;;;2.20;99.90;;;;;;2602871;54;20030;31
2024/01/31 23:48:24;;;;;;;39.05;18.63;;;2.30;99.90;;;;;;2602698;54;20864;31
2024/01/31 23:51:02;;;;;;;41.08;19.90;;;2.20;99.90;;;;;;2602640;54;20114;31
2024/01/31 23:53:35;;;;;;;45.83;21.67;;;2.20;99.90;;;;;;2602649;54;20027;31
2024/01/31 23:56:15;;;;;;;47.67;22.00;;;2.20;99.90;;;;;;2602714;54;20102;31
2024/01/31 23:58:52;;;;;;;50.67;20.90;;;2.20;99.90;;;;;;2602173;54;20911;31
